createdAt,value
2024-02-24T00:01:58.502Z,4.82
2024-02-24T00:04:25.841Z,5.78
2024-02-24T00:06:52.593Z,5.15
2024-02-24T00:09:19.288Z,5.07
2024-02-24T00:11:45.929Z,5.22
2024-02-24T00:14:12.720Z,4.82
2024-02-24T00:16:39.356Z,5.50
2024-02-24T00:19:06.809Z,4.75
2024-02-24T00:21:33.789Z,5.00
2024-02-24T00:24:00.476Z,4.75
2024-02-24T00:26:27.257Z,4.70
2024-02-24T00:28:53.885Z,4.65
2024-02-24T00:31:20.550Z,4.60
2024-02-24T00:33:47.161Z,5.82
2024-02-24T00:36:13.775Z,5.82
2024-02-24T00:38:40.479Z,6.40
2024-02-24T00:41:07.148Z,6.35
2024-02-24T00:43:34.057Z,5.88
2024-02-24T00:46:01.463Z,6.13
2024-02-24T00:48:30.142Z,6.82
2024-02-24T00:50:56.906Z,6.40
2024-02-24T00:53:23.696Z,6.78
2024-02-24T00:55:50.390Z,7.23
2024-02-24T00:58:16.954Z,6.38
2024-02-24T01:00:43.613Z,6.20
2024-02-24T01:03:10.190Z,6.68
2024-02-24T01:05:37.308Z,6.50
2024-02-24T01:08:04.368Z,5.55
2024-02-24T01:10:31.036Z,6.03
2024-02-24T01:12:57.635Z,5.40
2024-02-24T01:15:25.623Z,5.57
2024-02-24T01:17:57.258Z,5.28
2024-02-24T01:20:25.845Z,5.90
2024-02-24T01:22:58.777Z,6.80
2024-02-24T01:25:25.435Z,6.78
2024-02-24T01:27:52.058Z,7.43
2024-02-24T01:30:18.698Z,7.18
2024-02-24T01:32:45.469Z,8.52
2024-02-24T01:35:12.299Z,7.78
2024-02-24T01:37:39.018Z,8.40
2024-02-24T01:40:09.468Z,8.48
2024-02-24T01:42:36.140Z,10.27
2024-02-24T01:45:03.254Z,11.32
2024-02-24T01:47:30.364Z,11.05
2024-02-24T01:49:57.556Z,10.93
2024-02-24T01:52:25.356Z,10.50
2024-02-24T01:54:56.677Z,9.45
2024-02-24T01:57:25.863Z,8.60
2024-02-24T01:59:52.551Z,8.82
2024-02-24T02:02:19.222Z,7.97
2024-02-24T02:04:45.842Z,9.27
2024-02-24T02:07:12.552Z,9.07
2024-02-24T02:09:59.005Z,9.13
2024-02-24T02:12:26.621Z,9.23
2024-02-24T02:14:53.317Z,9.70
2024-02-24T02:17:20.668Z,8.98
2024-02-24T02:19:47.642Z,9.90
2024-02-24T02:22:18.784Z,8.43
2024-02-24T02:24:46.770Z,22.77
2024-02-24T02:27:13.466Z,11.25
2024-02-24T02:29:40.204Z,12.10
2024-02-24T02:32:09.163Z,12.80
2024-02-24T02:34:36.160Z,13.70
2024-02-24T02:37:02.853Z,13.93
2024-02-24T02:39:29.604Z,14.82
2024-02-24T02:41:56.143Z,19.98
2024-02-24T02:44:24.502Z,16.83
2024-02-24T02:46:51.704Z,13.75
2024-02-24T02:49:18.701Z,13.38
2024-02-24T02:51:46.045Z,13.00
2024-02-24T02:54:12.646Z,12.23
2024-02-24T02:56:39.240Z,12.10
2024-02-24T02:59:05.865Z,13.35
2024-02-24T03:01:32.547Z,11.55
2024-02-24T03:03:59.234Z,13.93
2024-02-24T03:06:26.378Z,10.32
2024-02-24T03:08:56.750Z,11.23
2024-02-24T03:18:04.227Z,11.98
2024-02-24T03:20:30.916Z,11.65
2024-02-24T03:22:57.586Z,10.85
2024-02-24T03:25:24.288Z,12.05
2024-02-24T03:27:50.841Z,12.20
2024-02-24T03:30:17.727Z,12.45
2024-02-24T03:32:50.189Z,13.98
2024-02-24T03:35:16.909Z,15.05
2024-02-24T03:37:43.766Z,9.60
2024-02-24T03:40:12.477Z,11.48
2024-02-24T03:42:39.043Z,11.60
2024-02-24T03:45:06.390Z,11.38
2024-02-24T03:47:33.079Z,13.00
2024-02-24T03:49:59.769Z,11.95
2024-02-24T03:52:26.339Z,13.98
2024-02-24T03:54:52.999Z,10.68
2024-02-24T03:57:19.572Z,12.07
2024-02-24T03:59:46.169Z,20.38
2024-02-24T04:02:12.838Z,14.60
2024-02-24T04:04:39.438Z,13.13
2024-02-24T04:07:06.771Z,11.57
2024-02-24T04:09:33.324Z,10.77
2024-02-24T04:12:00.037Z,10.65
2024-02-24T04:14:28.055Z,11.40
2024-02-24T04:16:55.365Z,10.38
2024-02-24T04:19:22.284Z,11.32
2024-02-24T04:21:48.985Z,12.18
2024-02-24T04:24:15.608Z,13.52
2024-02-24T04:26:42.975Z,11.90
2024-02-24T04:29:09.584Z,11.05
2024-02-24T04:31:36.165Z,12.27
2024-02-24T04:34:02.840Z,12.20
2024-02-24T04:36:29.570Z,12.30
2024-02-24T04:38:56.185Z,9.95
2024-02-24T04:41:22.912Z,10.15
2024-02-24T04:43:49.460Z,10.00
2024-02-24T04:46:15.995Z,13.45
2024-02-24T04:48:43.778Z,11.90
2024-02-24T04:51:10.570Z,10.95
2024-02-24T04:53:37.193Z,10.23
2024-02-24T04:56:04.002Z,11.13
2024-02-24T04:58:30.622Z,12.20
2024-02-24T05:00:57.350Z,12.15
2024-02-24T05:03:24.190Z,12.07
2024-02-24T05:05:50.785Z,16.27
2024-02-24T05:08:17.521Z,12.73
2024-02-24T05:10:44.160Z,12.63
2024-02-24T05:13:10.753Z,13.60
2024-02-24T05:15:37.420Z,12.15
2024-02-24T05:18:04.547Z,12.65
2024-02-24T05:20:32.307Z,11.70
2024-02-24T05:22:58.954Z,11.43
2024-02-24T05:25:25.553Z,11.30
2024-02-24T05:27:52.039Z,11.25
2024-02-24T05:30:18.528Z,12.70
2024-02-24T05:32:45.270Z,13.10
2024-02-24T05:35:12.194Z,12.95
2024-02-24T05:37:38.724Z,14.23
2024-02-24T05:40:05.829Z,14.43
2024-02-24T05:42:32.386Z,13.40
2024-02-24T05:44:59.035Z,13.55
2024-02-24T05:47:25.875Z,13.00
2024-02-24T05:49:52.450Z,13.30
2024-02-24T05:52:19.531Z,13.75
2024-02-24T05:54:46.178Z,12.82
2024-02-24T05:57:12.714Z,12.32
2024-02-24T05:59:39.354Z,13.65
2024-02-24T06:02:05.840Z,11.65
2024-02-24T06:04:32.609Z,11.93
2024-02-24T06:06:59.264Z,13.50
2024-02-24T06:09:26.696Z,12.00
2024-02-24T06:11:53.510Z,12.93
2024-02-24T06:14:20.306Z,13.70
2024-02-24T06:16:46.850Z,12.13
2024-02-24T06:19:14.612Z,11.88
2024-02-24T06:21:41.355Z,11.20
2024-02-24T06:24:07.995Z,14.48
2024-02-24T06:26:34.550Z,13.63
2024-02-24T06:29:01.219Z,15.30
2024-02-24T06:31:27.912Z,12.68
2024-02-24T06:33:55.275Z,12.63
2024-02-24T06:36:22.029Z,14.30
2024-02-24T06:38:50.001Z,14.05
2024-02-24T06:41:19.150Z,16.25
2024-02-24T06:43:46.304Z,14.95
2024-02-24T06:46:12.852Z,13.35
2024-02-24T06:48:39.463Z,12.43
2024-02-24T06:51:06.067Z,13.05
2024-02-24T06:53:32.634Z,13.35
2024-02-24T06:56:05.715Z,13.38
2024-02-24T06:58:32.970Z,13.77
2024-02-24T07:00:59.543Z,13.75
2024-02-24T07:03:26.287Z,14.23
2024-02-24T07:05:53.001Z,14.20
2024-02-24T07:08:19.578Z,15.05
2024-02-24T07:10:46.396Z,15.10
2024-02-24T07:13:12.962Z,14.18
2024-02-24T07:15:39.896Z,13.82
2024-02-24T07:18:06.844Z,13.55
2024-02-24T07:20:33.551Z,11.38
2024-02-24T07:23:00.220Z,15.18
2024-02-24T07:25:26.759Z,14.20
2024-02-24T07:27:53.320Z,13.40
2024-02-24T07:30:19.950Z,12.63
2024-02-24T07:32:47.804Z,13.38
2024-02-24T07:35:14.552Z,13.98
2024-02-24T07:37:41.116Z,13.73
2024-02-24T07:40:08.310Z,14.75
2024-02-24T07:42:34.915Z,16.75
2024-02-24T07:45:02.204Z,18.77
2024-02-24T07:47:28.919Z,15.68
2024-02-24T07:49:55.593Z,12.57
2024-02-24T07:52:22.165Z,12.57
2024-02-24T07:54:48.681Z,11.10
2024-02-24T07:57:15.407Z,12.90
2024-02-24T07:59:42.229Z,12.50
2024-02-24T08:02:08.839Z,11.65
2024-02-24T08:04:35.524Z,10.57
2024-02-24T08:07:02.406Z,15.20
2024-02-24T08:09:29.111Z,10.35
2024-02-24T08:11:55.846Z,8.48
2024-02-24T08:14:22.531Z,7.85
2024-02-24T08:16:49.093Z,8.07
2024-02-24T08:19:16.580Z,8.07
2024-02-24T08:21:43.113Z,8.80
2024-02-24T08:24:10.364Z,8.43
2024-02-24T08:26:40.681Z,7.93
2024-02-24T08:29:09.154Z,8.90
2024-02-24T08:31:36.397Z,8.55
2024-02-24T08:34:03.489Z,8.57
2024-02-24T08:36:30.280Z,8.30
2024-02-24T08:39:01.092Z,7.70
2024-02-24T08:41:28.684Z,8.30
2024-02-24T08:43:55.257Z,7.78
2024-02-24T08:46:21.789Z,7.03
2024-02-24T08:48:48.371Z,9.18
2024-02-24T08:51:14.929Z,7.45
2024-02-24T08:53:41.701Z,7.68
2024-02-24T08:56:08.254Z,6.72
2024-02-24T08:58:34.863Z,6.82
2024-02-24T09:01:01.986Z,6.32
2024-02-24T09:03:28.562Z,7.18
2024-02-24T09:05:55.176Z,7.68
2024-02-24T09:08:21.796Z,7.05
2024-02-24T09:10:48.842Z,6.72
2024-02-24T09:14:50.130Z,6.55
2024-02-24T09:17:17.257Z,6.88
2024-02-24T09:19:44.436Z,7.00
2024-02-24T09:24:59.114Z,6.53
2024-02-24T09:27:25.938Z,6.25
2024-02-24T09:29:52.682Z,6.00
2024-02-24T09:32:19.793Z,5.80
2024-02-24T09:34:46.520Z,6.03
2024-02-24T09:37:13.294Z,5.68
2024-02-24T09:39:44.060Z,5.45
2024-02-24T09:42:12.141Z,5.35
2024-02-24T09:44:39.979Z,5.75
2024-02-24T09:47:07.101Z,5.97
2024-02-24T09:49:33.897Z,7.32
2024-02-24T09:52:00.993Z,6.35
2024-02-24T09:54:29.277Z,6.32
2024-02-24T09:56:57.523Z,5.93
2024-02-24T09:59:26.114Z,6.95
2024-02-24T10:01:52.961Z,5.30
2024-02-24T10:04:20.078Z,4.25
2024-02-24T10:06:47.056Z,3.15
2024-02-24T10:09:13.829Z,3.47
2024-02-24T10:11:41.337Z,3.38
2024-02-24T10:14:08.961Z,3.33
2024-02-24T10:16:39.432Z,4.93
2024-02-24T10:19:07.239Z,3.72
2024-02-24T10:21:35.360Z,3.88
2024-02-24T10:24:03.936Z,3.47
2024-02-24T10:26:31.011Z,3.20
2024-02-24T10:28:58.016Z,4.03
2024-02-24T10:31:25.178Z,3.85
2024-02-24T10:33:53.988Z,3.90
2024-02-24T10:36:20.802Z,3.17
2024-02-24T10:38:55.494Z,2.60
2024-02-24T10:41:26.793Z,3.15
2024-02-24T10:44:06.084Z,2.78
2024-02-24T10:46:44.417Z,3.33
2024-02-24T10:49:12.262Z,2.50
2024-02-24T10:51:39.675Z,3.22
2024-02-24T10:54:13.689Z,3.00
2024-02-24T10:56:41.085Z,2.90
2024-02-24T10:59:09.144Z,3.17
2024-02-24T11:01:44.576Z,3.03
2024-02-24T11:04:13.150Z,5.05
2024-02-24T11:06:47.246Z,5.70
2024-02-24T11:09:16.050Z,4.05
2024-02-24T11:11:43.880Z,5.13
2024-02-24T11:14:10.796Z,3.55
2024-02-24T11:16:39.865Z,2.28
2024-02-24T11:19:12.719Z,3.13
2024-02-24T11:22:03.449Z,2.80
2024-02-24T11:24:32.005Z,2.92
2024-02-24T11:26:58.756Z,3.05
2024-02-24T11:29:30.742Z,3.72
2024-02-24T11:32:15.457Z,3.20
2024-02-24T11:34:46.798Z,3.33
2024-02-24T11:37:18.405Z,3.25
2024-02-24T11:39:48.055Z,2.85
2024-02-24T11:42:15.255Z,2.58
2024-02-24T11:44:47.366Z,2.22
2024-02-24T11:47:18.623Z,2.50
2024-02-24T11:49:46.694Z,2.17
2024-02-24T11:52:14.656Z,2.65
2024-02-24T11:54:41.668Z,2.35
2024-02-24T11:57:08.654Z,2.42
2024-02-24T11:59:38.372Z,2.15
2024-02-24T12:02:05.618Z,2.40
2024-02-24T12:04:32.248Z,2.35
2024-02-24T12:06:59.978Z,2.10
2024-02-24T12:09:26.695Z,2.67
2024-02-24T12:11:53.597Z,2.20
2024-02-24T12:14:20.657Z,2.08
2024-02-24T12:16:47.816Z,2.42
2024-02-24T12:19:14.724Z,2.13
2024-02-24T12:21:42.457Z,2.08
2024-02-24T12:24:10.251Z,2.05
2024-02-24T12:26:36.884Z,2.05
2024-02-24T12:29:05.365Z,3.28
2024-02-24T12:31:32.073Z,2.15
2024-02-24T12:33:59.220Z,3.85
2024-02-24T12:36:26.380Z,2.80
2024-02-24T12:38:53.046Z,2.35
2024-02-24T12:41:19.915Z,2.33
2024-02-24T12:43:46.490Z,2.60
2024-02-24T12:46:13.086Z,2.08
2024-02-24T12:48:43.447Z,1.90
2024-02-24T12:51:12.021Z,2.08
2024-02-24T12:53:38.635Z,2.13
2024-02-24T12:56:05.359Z,1.85
2024-02-24T12:58:32.035Z,2.60
2024-02-24T13:00:59.089Z,2.10
2024-02-24T13:03:25.953Z,2.10
2024-02-24T13:05:52.738Z,2.00
2024-02-24T13:08:19.655Z,1.75
2024-02-24T13:10:46.608Z,2.10
2024-02-24T13:13:13.403Z,1.60
2024-02-24T13:15:40.061Z,1.92
2024-02-24T13:18:07.127Z,1.83
2024-02-24T13:20:34.000Z,1.85
2024-02-24T13:23:00.672Z,1.90
2024-02-24T13:25:27.823Z,1.65
2024-02-24T13:27:54.630Z,1.92
2024-02-24T13:30:22.693Z,1.42
2024-02-24T13:32:50.146Z,1.85
2024-02-24T13:35:17.129Z,1.52
2024-02-24T13:37:43.880Z,1.40
2024-02-24T13:42:37.856Z,1.67
2024-02-24T13:45:07.238Z,1.80
2024-02-24T13:47:34.790Z,1.60
2024-02-24T13:50:01.645Z,1.77
2024-02-24T13:52:29.146Z,1.35
2024-02-24T13:54:55.704Z,1.50
2024-02-24T13:57:22.515Z,2.00
2024-02-24T13:59:49.547Z,1.48
2024-02-24T14:02:16.280Z,1.40
2024-02-24T14:04:42.891Z,1.70
2024-02-24T14:07:10.512Z,4.40
2024-02-24T14:09:37.441Z,2.67
2024-02-24T14:12:05.270Z,2.00
2024-02-24T14:14:32.980Z,1.90
2024-02-24T14:16:59.617Z,1.70
2024-02-24T14:19:26.261Z,1.83
2024-02-24T14:21:53.112Z,2.45
2024-02-24T14:24:19.634Z,1.90
2024-02-24T14:29:13.779Z,1.85
2024-02-24T14:31:40.485Z,2.20
2024-02-24T14:36:33.641Z,1.67
2024-02-24T14:39:00.555Z,1.80
2024-02-24T14:41:28.003Z,2.30
2024-02-24T14:43:54.754Z,1.73
2024-02-24T14:46:21.354Z,1.60
2024-02-24T14:48:49.563Z,1.50
2024-02-24T14:51:17.989Z,1.98
2024-02-24T14:53:44.875Z,1.67
2024-02-24T14:56:11.545Z,1.40
2024-02-24T14:58:39.364Z,1.90
2024-02-24T15:01:05.953Z,1.80
2024-02-24T15:06:04.445Z,1.52
2024-02-24T15:08:31.872Z,1.75
2024-02-24T15:10:58.501Z,1.77
2024-02-24T15:13:29.395Z,1.70
2024-02-24T15:15:58.558Z,1.52
2024-02-24T15:18:25.351Z,1.40
2024-02-24T15:20:52.058Z,1.45
2024-02-24T15:23:18.734Z,1.70
2024-02-24T15:25:47.751Z,1.80
2024-02-24T15:28:14.932Z,1.90
2024-02-24T15:30:41.855Z,2.03
2024-02-24T15:33:08.647Z,2.00
2024-02-24T15:35:35.375Z,1.63
2024-02-24T15:38:01.950Z,2.10
2024-02-24T15:40:30.812Z,1.73
2024-02-24T15:42:59.852Z,1.98
2024-02-24T15:45:26.468Z,1.92
2024-02-24T15:47:53.196Z,2.08
2024-02-24T15:50:23.312Z,2.25
2024-02-24T15:52:50.282Z,1.98
2024-02-24T15:55:16.946Z,2.33
2024-02-24T15:57:47.029Z,1.63
2024-02-24T16:00:13.901Z,2.08
2024-02-24T16:02:42.804Z,1.98
2024-02-24T16:05:10.226Z,2.33
2024-02-24T16:07:36.879Z,2.13
2024-02-24T16:10:03.805Z,2.08
2024-02-24T16:12:30.334Z,1.58
2024-02-24T16:14:57.056Z,2.42
2024-02-24T16:17:23.731Z,2.10
2024-02-24T16:19:51.127Z,1.80
2024-02-24T16:22:17.886Z,2.20
2024-02-24T16:24:44.634Z,1.88
2024-02-24T16:27:11.320Z,2.05
2024-02-24T16:29:38.091Z,1.98
2024-02-24T16:32:07.503Z,2.20
2024-02-24T16:34:36.610Z,1.90
2024-02-24T16:37:03.678Z,2.65
2024-02-24T16:39:33.220Z,2.05
2024-02-24T16:42:00.306Z,2.08
2024-02-24T16:44:28.011Z,2.20
2024-02-24T16:46:55.883Z,2.30
2024-02-24T16:49:23.007Z,2.22
2024-02-24T16:51:52.832Z,2.50
2024-02-24T16:54:19.484Z,2.30
2024-02-24T16:56:46.125Z,2.25
2024-02-24T16:59:12.849Z,2.50
2024-02-24T17:01:39.480Z,2.40
2024-02-24T17:04:06.164Z,2.38
2024-02-24T17:06:32.968Z,2.40
2024-02-24T17:08:59.702Z,1.90
2024-02-24T17:11:28.481Z,2.67
2024-02-24T17:13:55.321Z,2.60
2024-02-24T17:16:21.869Z,2.58
2024-02-24T17:18:48.556Z,2.55
2024-02-24T17:21:15.333Z,2.60
2024-02-24T17:23:43.014Z,3.08
2024-02-24T17:26:10.147Z,3.63
2024-02-24T17:28:36.681Z,3.17
2024-02-24T17:31:03.711Z,2.95
2024-02-24T17:33:30.327Z,3.40
2024-02-24T17:35:57.019Z,3.83
2024-02-24T17:38:25.223Z,4.00
2024-02-24T17:40:51.866Z,2.80
2024-02-24T17:43:18.407Z,3.55
2024-02-24T17:45:44.968Z,3.40
2024-02-24T17:48:11.739Z,3.15
2024-02-24T17:50:38.383Z,3.65
2024-02-24T17:53:04.912Z,4.13
2024-02-24T17:55:31.623Z,4.40
2024-02-24T17:57:58.097Z,4.13
2024-02-24T18:00:24.684Z,3.88
2024-02-24T18:02:51.216Z,4.22
2024-02-24T18:05:18.861Z,3.78
2024-02-24T18:07:45.637Z,4.53
2024-02-24T18:10:13.454Z,4.35
2024-02-24T18:12:40.198Z,4.25
2024-02-24T18:15:07.598Z,4.68
2024-02-24T18:17:34.428Z,4.57
2024-02-24T18:20:01.121Z,3.55
2024-02-24T18:22:28.041Z,4.03
2024-02-24T18:24:54.539Z,4.32
2024-02-24T18:27:21.259Z,4.00
2024-02-24T18:29:47.863Z,4.13
2024-02-24T18:32:14.444Z,4.05
2024-02-24T18:34:41.204Z,6.05
2024-02-24T18:37:07.975Z,6.03
2024-02-24T18:39:35.326Z,4.68
2024-02-24T18:42:03.138Z,4.25
2024-02-24T18:44:29.841Z,5.30
2024-02-24T18:46:57.429Z,6.32
2024-02-24T18:49:24.297Z,6.60
2024-02-24T18:51:50.890Z,7.20
2024-02-24T18:54:17.422Z,6.50
2024-02-24T18:56:44.002Z,5.18
2024-02-24T18:59:10.599Z,5.78
2024-02-24T19:01:37.231Z,4.90
2024-02-24T19:04:04.372Z,4.55
2024-02-24T19:06:31.037Z,4.90
2024-02-24T19:08:57.716Z,5.13
2024-02-24T19:11:24.437Z,5.63
2024-02-24T19:13:51.013Z,5.00
2024-02-24T19:16:17.593Z,6.25
2024-02-24T19:18:44.332Z,6.90
2024-02-24T19:21:11.105Z,7.57
2024-02-24T19:23:38.865Z,7.18
2024-02-24T19:26:05.763Z,5.70
2024-02-24T19:28:32.482Z,6.30
2024-02-24T19:30:59.692Z,6.15
2024-02-24T19:33:26.515Z,6.90
2024-02-24T19:35:53.160Z,5.75
2024-02-24T19:38:19.994Z,6.07
2024-02-24T19:40:47.790Z,6.55
2024-02-24T19:43:14.388Z,6.22
2024-02-24T19:45:42.584Z,5.28
2024-02-24T19:48:09.642Z,5.65
2024-02-24T19:50:36.325Z,4.72
2024-02-24T19:53:02.972Z,4.43
2024-02-24T19:55:29.538Z,4.70
2024-02-24T19:57:56.073Z,3.88
2024-02-24T20:00:22.807Z,3.95
2024-02-24T20:02:49.325Z,3.33
2024-02-24T20:05:19.942Z,3.00
2024-02-24T20:07:46.750Z,3.10
2024-02-24T20:10:13.778Z,2.92
2024-02-24T20:12:40.386Z,3.08
2024-02-24T20:15:07.622Z,2.53
2024-02-24T20:17:34.421Z,3.13
2024-02-24T20:20:01.228Z,2.88
2024-02-24T20:22:28.035Z,3.20
2024-02-24T20:24:54.587Z,2.60
2024-02-24T20:27:21.132Z,3.42
2024-02-24T20:29:47.744Z,3.95
2024-02-24T20:32:14.770Z,3.78
2024-02-24T20:34:41.584Z,3.90
2024-02-24T20:37:08.287Z,4.50
2024-02-24T20:39:34.775Z,4.97
2024-02-24T20:42:01.519Z,4.53
2024-02-24T20:44:28.111Z,3.50
2024-02-24T20:46:54.650Z,3.20
2024-02-24T20:49:25.843Z,3.08
2024-02-24T20:51:58.421Z,2.63
2024-02-24T20:54:26.781Z,3.05
2024-02-24T20:56:53.434Z,3.10
2024-02-24T20:59:20.000Z,3.55
2024-02-24T21:01:46.653Z,3.55
2024-02-24T21:04:13.244Z,3.13
2024-02-24T21:06:43.416Z,3.08
2024-02-24T21:09:10.851Z,3.20
2024-02-24T21:11:37.514Z,3.22
2024-02-24T21:14:04.082Z,2.35
2024-02-24T21:16:30.598Z,2.63
2024-02-24T21:18:57.562Z,2.85
2024-02-24T21:21:26.098Z,3.15
2024-02-24T21:23:55.386Z,3.10
2024-02-24T21:26:23.977Z,3.00
2024-02-24T21:28:52.130Z,3.53
2024-02-24T21:31:19.831Z,3.40
2024-02-24T21:33:46.706Z,3.80
2024-02-24T21:36:13.593Z,4.90
2024-02-24T21:38:40.173Z,3.95
2024-02-24T21:41:06.730Z,3.70
2024-02-24T21:43:33.333Z,4.30
2024-02-24T21:46:00.177Z,3.70
2024-02-24T21:48:27.629Z,3.78
2024-02-24T21:50:55.365Z,3.92
2024-02-24T21:53:21.943Z,4.53
2024-02-24T21:55:48.439Z,4.38
2024-02-24T21:58:15.092Z,4.50
2024-02-24T22:00:41.583Z,4.05
2024-02-24T22:03:08.396Z,4.10
2024-02-24T22:05:35.075Z,3.72
2024-02-24T22:08:01.887Z,4.20
2024-02-24T22:10:29.304Z,4.72
2024-02-24T22:12:56.036Z,4.60
2024-02-24T22:15:23.820Z,4.10
2024-02-24T22:17:50.419Z,4.60
2024-02-24T22:20:17.113Z,4.05
2024-02-24T22:22:43.759Z,4.03
2024-02-24T22:25:10.320Z,4.07
2024-02-24T22:27:38.547Z,4.28
2024-02-24T22:30:13.320Z,3.78
2024-02-24T22:32:44.101Z,4.90
2024-02-24T22:35:11.132Z,4.20
2024-02-24T22:37:38.332Z,4.65
2024-02-24T22:40:05.639Z,4.13
2024-02-24T22:42:34.660Z,4.57
2024-02-24T22:45:03.028Z,4.00
2024-02-24T22:47:30.136Z,5.72
2024-02-24T22:49:56.883Z,4.93
2024-02-24T22:52:23.553Z,4.85
2024-02-24T22:54:50.599Z,5.30
2024-02-24T22:57:17.871Z,6.00
2024-02-24T22:59:44.556Z,4.97
2024-02-24T23:17:53.593Z,5.65
2024-02-24T23:20:20.368Z,6.20
2024-02-24T23:22:46.938Z,7.05
2024-02-24T23:25:13.975Z,5.65
2024-02-24T23:27:40.607Z,6.13
2024-02-24T23:30:08.147Z,6.22
2024-02-24T23:32:34.938Z,5.85
2024-02-24T23:35:01.582Z,5.00
2024-02-24T23:37:28.235Z,6.85
2024-02-24T23:39:54.810Z,6.78
2024-02-24T23:42:21.479Z,6.28
2024-02-24T23:44:48.098Z,6.18
2024-02-24T23:47:14.988Z,5.47
2024-02-24T23:49:42.628Z,5.85
2024-02-24T23:52:09.271Z,5.85
2024-02-24T23:54:35.995Z,5.13
2024-02-24T23:57:02.676Z,4.80
2024-02-24T23:59:29.291Z,5.00
